sensor_id;sensor_type;location;lat;lon;timestamp;temperature;humidity
7030;DHT22;3556;53.500;10.176;2022-07-23T00:01:24;15.90;99.90
7030;DHT22;3556;53.500;10.176;2022-07-23T00:03:49;15.90;99.90
7030;DHT22;3556;53.500;10.176;2022-07-23T00:06:15;15.90;99.90
7030;DHT22;3556;53.500;10.176;2022-07-23T00:08:41;15.90;99.90
7030;DHT22;3556;53.500;10.176;2022-07-23T00:11:07;15.90;99.90
7030;DHT22;3556;53.500;10.176;2022-07-23T00:13:33;15.90;99.90
7030;DHT22;3556;53.500;10.176;2022-07-23T00:15:59;15.90;99.90
7030;DHT22;3556;53.500;10.176;2022-07-23T00:18:24;15.90;99.90
7030;DHT22;3556;53.500;10.176;2022-07-23T00:20:51;15.90;99.90
7030;DHT22;3556;53.500;10.176;2022-07-23T00:23:17;15.90;99.90
7030;DHT22;3556;53.500;10.176;2022-07-23T00:25:43;15.90;99.90
7030;DHT22;3556;53.500;10.176;2022-07-23T00:28:10;15.90;99.90
7030;DHT22;3556;53.500;10.176;2022-07-23T00:30:36;15.80;99.90
7030;DHT22;3556;53.500;10.176;2022-07-23T00:33:05;15.80;99.90
7030;DHT22;3556;53.500;10.176;2022-07-23T00:35:36;15.80;99.90
7030;DHT22;3556;53.500;10.176;2022-07-23T00:38:03;15.80;99.90
7030;DHT22;3556;53.500;10.176;2022-07-23T00:40:30;15.80;99.90
7030;DHT22;3556;53.500;10.176;2022-07-23T00:42:56;15.80;99.90
7030;DHT22;3556;53.500;10.176;2022-07-23T00:45:22;15.80;99.90
7030;DHT22;3556;53.500;10.176;2022-07-23T00:47:48;15.80;99.90
7030;DHT22;3556;53.500;10.176;2022-07-23T00:50:14;15.80;99.90
7030;DHT22;3556;53.500;10.176;2022-07-23T00:52:40;15.80;99.90
7030;DHT22;3556;53.500;10.176;2022-07-23T00:55:07;15.70;99.90
7030;DHT22;3556;53.500;10.176;2022-07-23T00:57:34;15.70;99.90
7030;DHT22;3556;53.500;10.176;2022-07-23T01:00:00;15.70;99.90
7030;DHT22;3556;53.500;10.176;2022-07-23T01:02:26;15.70;99.90
7030;DHT22;3556;53.500;10.176;2022-07-23T01:04:53;15.70;99.90
7030;DHT22;3556;53.500;10.176;2022-07-23T01:07:19;15.70;99.90
7030;DHT22;3556;53.500;10.176;2022-07-23T01:09:45;15.70;99.90
7030;DHT22;3556;53.500;10.176;2022-07-23T01:12:11;15.60;99.90
7030;DHT22;3556;53.500;10.176;2022-07-23T01:14:37;15.70;99.90
7030;DHT22;3556;53.500;10.176;2022-07-23T01:17:03;15.60;99.90
7030;DHT22;3556;53.500;10.176;2022-07-23T01:19:29;15.60;99.90
7030;DHT22;3556;53.500;10.176;2022-07-23T01:21:57;15.60;99.90
7030;DHT22;3556;53.500;10.176;2022-07-23T01:24:23;15.60;99.90
7030;DHT22;3556;53.500;10.176;2022-07-23T01:26:49;15.60;99.90
7030;DHT22;3556;53.500;10.176;2022-07-23T01:29:16;15.60;99.90
7030;DHT22;3556;53.500;10.176;2022-07-23T01:31:42;15.50;99.90
7030;DHT22;3556;53.500;10.176;2022-07-23T01:34:08;15.50;99.90
7030;DHT22;3556;53.500;10.176;2022-07-23T01:36:35;15.50;99.90
7030;DHT22;3556;53.500;10.176;2022-07-23T01:39:02;15.50;99.90
7030;DHT22;3556;53.500;10.176;2022-07-23T01:41:28;15.50;99.90
7030;DHT22;3556;53.500;10.176;2022-07-23T01:43:53;15.50;99.90
7030;DHT22;3556;53.500;10.176;2022-07-23T01:46:19;15.40;99.90
7030;DHT22;3556;53.500;10.176;2022-07-23T01:48:45;15.40;99.90
7030;DHT22;3556;53.500;10.176;2022-07-23T01:51:10;15.40;99.90
7030;DHT22;3556;53.500;10.176;2022-07-23T01:53:36;15.40;99.90
7030;DHT22;3556;53.500;10.176;2022-07-23T01:56:02;15.40;99.90
7030;DHT22;3556;53.500;10.176;2022-07-23T01:58:29;15.40;99.90
7030;DHT22;3556;53.500;10.176;2022-07-23T02:00:55;15.40;99.90
7030;DHT22;3556;53.500;10.176;2022-07-23T02:03:22;15.40;99.90
7030;DHT22;3556;53.500;10.176;2022-07-23T02:05:48;15.40;99.90
7030;DHT22;3556;53.500;10.176;2022-07-23T02:08:14;15.30;99.90
7030;DHT22;3556;53.500;10.176;2022-07-23T02:10:40;15.30;99.90
7030;DHT22;3556;53.500;10.176;2022-07-23T02:13:06;15.30;99.90
7030;DHT22;3556;53.500;10.176;2022-07-23T02:15:32;15.30;99.90
7030;DHT22;3556;53.500;10.176;2022-07-23T02:17:58;15.30;99.90
7030;DHT22;3556;53.500;10.176;2022-07-23T02:20:24;15.30;99.90
7030;DHT22;3556;53.500;10.176;2022-07-23T02:22:50;15.30;99.90
7030;DHT22;3556;53.500;10.176;2022-07-23T02:25:16;15.30;99.90
7030;DHT22;3556;53.500;10.176;2022-07-23T02:27:41;15.30;99.90
7030;DHT22;3556;53.500;10.176;2022-07-23T02:30:08;15.20;99.90
7030;DHT22;3556;53.500;10.176;2022-07-23T02:32:34;15.20;99.90
7030;DHT22;3556;53.500;10.176;2022-07-23T02:35:00;15.20;99.90
7030;DHT22;3556;53.500;10.176;2022-07-23T02:37:26;15.20;99.90
7030;DHT22;3556;53.500;10.176;2022-07-23T02:39:51;15.20;99.90
7030;DHT22;3556;53.500;10.176;2022-07-23T02:42:17;15.10;99.90
7030;DHT22;3556;53.500;10.176;2022-07-23T02:44:43;15.10;99.90
7030;DHT22;3556;53.500;10.176;2022-07-23T02:47:09;15.10;99.90
7030;DHT22;3556;53.500;10.176;2022-07-23T02:49:34;15.10;99.90
7030;DHT22;3556;53.500;10.176;2022-07-23T02:52:01;15.00;99.90
7030;DHT22;3556;53.500;10.176;2022-07-23T02:54:27;15.00;99.90
7030;DHT22;3556;53.500;10.176;2022-07-23T02:56:52;15.00;99.90
7030;DHT22;3556;53.500;10.176;2022-07-23T02:59:18;14.90;99.90
7030;DHT22;3556;53.500;10.176;2022-07-23T03:01:44;14.90;99.90
7030;DHT22;3556;53.500;10.176;2022-07-23T03:04:10;14.80;99.90
7030;DHT22;3556;53.500;10.176;2022-07-23T03:06:36;14.80;99.90
7030;DHT22;3556;53.500;10.176;2022-07-23T03:09:03;14.70;99.90
7030;DHT22;3556;53.500;10.176;2022-07-23T03:11:29;14.70;99.90
7030;DHT22;3556;53.500;10.176;2022-07-23T03:13:54;14.70;99.90
7030;DHT22;3556;53.500;10.176;2022-07-23T03:16:20;14.70;99.90
7030;DHT22;3556;53.500;10.176;2022-07-23T03:18:46;14.60;99.90
7030;DHT22;3556;53.500;10.176;2022-07-23T03:21:11;14.60;99.90
7030;DHT22;3556;53.500;10.176;2022-07-23T03:23:37;14.60;99.90
7030;DHT22;3556;53.500;10.176;2022-07-23T03:26:03;14.60;99.90
7030;DHT22;3556;53.500;10.176;2022-07-23T03:28:28;14.50;99.90
7030;DHT22;3556;53.500;10.176;2022-07-23T03:30:54;14.50;99.90
7030;DHT22;3556;53.500;10.176;2022-07-23T03:33:20;14.50;99.90
7030;DHT22;3556;53.500;10.176;2022-07-23T03:35:47;14.50;99.90
7030;DHT22;3556;53.500;10.176;2022-07-23T03:38:13;14.40;99.90
7030;DHT22;3556;53.500;10.176;2022-07-23T03:40:39;14.40;99.90
7030;DHT22;3556;53.500;10.176;2022-07-23T03:43:05;14.40;99.90
7030;DHT22;3556;53.500;10.176;2022-07-23T03:45:31;14.40;99.90
7030;DHT22;3556;53.500;10.176;2022-07-23T03:47:58;14.40;99.90
7030;DHT22;3556;53.500;10.176;2022-07-23T03:50:23;14.30;99.90
7030;DHT22;3556;53.500;10.176;2022-07-23T03:52:49;14.30;99.90
7030;DHT22;3556;53.500;10.176;2022-07-23T03:55:15;14.30;99.90
7030;DHT22;3556;53.500;10.176;2022-07-23T03:57:41;14.30;99.90
7030;DHT22;3556;53.500;10.176;2022-07-23T04:00:08;14.30;99.90
7030;DHT22;3556;53.500;10.176;2022-07-23T04:02:35;14.30;99.90
7030;DHT22;3556;53.500;10.176;2022-07-23T04:05:01;14.30;99.90
7030;DHT22;3556;53.500;10.176;2022-07-23T04:07:27;14.30;99.90
7030;DHT22;3556;53.500;10.176;2022-07-23T04:09:53;14.30;99.90
7030;DHT22;3556;53.500;10.176;2022-07-23T04:12:19;14.30;99.90
7030;DHT22;3556;53.500;10.176;2022-07-23T04:14:44;14.40;99.90
7030;DHT22;3556;53.500;10.176;2022-07-23T04:17:11;14.40;99.90
7030;DHT22;3556;53.500;10.176;2022-07-23T04:19:37;14.40;99.90
7030;DHT22;3556;53.500;10.176;2022-07-23T04:22:07;14.50;99.90
7030;DHT22;3556;53.500;10.176;2022-07-23T04:24:34;14.50;99.90
7030;DHT22;3556;53.500;10.176;2022-07-23T04:27:00;14.50;99.90
7030;DHT22;3556;53.500;10.176;2022-07-23T04:29:26;14.60;99.90
7030;DHT22;3556;53.500;10.176;2022-07-23T04:31:52;14.70;99.90
7030;DHT22;3556;53.500;10.176;2022-07-23T04:34:17;14.70;99.90
7030;DHT22;3556;53.500;10.176;2022-07-23T04:36:44;14.70;99.90
7030;DHT22;3556;53.500;10.176;2022-07-23T04:39:09;14.80;99.90
7030;DHT22;3556;53.500;10.176;2022-07-23T04:41:35;14.80;99.90
7030;DHT22;3556;53.500;10.176;2022-07-23T04:44:01;14.80;99.90
7030;DHT22;3556;53.500;10.176;2022-07-23T04:46:27;14.80;99.90
7030;DHT22;3556;53.500;10.176;2022-07-23T04:48:54;14.80;99.90
7030;DHT22;3556;53.500;10.176;2022-07-23T04:51:19;14.80;99.90
7030;DHT22;3556;53.500;10.176;2022-07-23T04:53:45;14.80;99.90
7030;DHT22;3556;53.500;10.176;2022-07-23T04:56:11;14.90;99.90
7030;DHT22;3556;53.500;10.176;2022-07-23T04:58:36;14.90;99.90
7030;DHT22;3556;53.500;10.176;2022-07-23T05:01:02;14.90;99.90
7030;DHT22;3556;53.500;10.176;2022-07-23T05:03:28;14.90;99.90
7030;DHT22;3556;53.500;10.176;2022-07-23T05:05:54;14.90;99.90
7030;DHT22;3556;53.500;10.176;2022-07-23T05:08:20;14.90;99.90
7030;DHT22;3556;53.500;10.176;2022-07-23T05:10:45;14.90;99.90
7030;DHT22;3556;53.500;10.176;2022-07-23T05:13:11;14.90;99.90
7030;DHT22;3556;53.500;10.176;2022-07-23T05:15:37;14.80;99.90
7030;DHT22;3556;53.500;10.176;2022-07-23T05:18:03;14.80;99.90
7030;DHT22;3556;53.500;10.176;2022-07-23T05:20:28;14.90;99.90
7030;DHT22;3556;53.500;10.176;2022-07-23T05:22:54;14.80;99.90
7030;DHT22;3556;53.500;10.176;2022-07-23T05:25:19;14.80;99.90
7030;DHT22;3556;53.500;10.176;2022-07-23T05:27:45;14.80;99.90
7030;DHT22;3556;53.500;10.176;2022-07-23T05:30:11;14.80;99.90
7030;DHT22;3556;53.500;10.176;2022-07-23T05:32:37;14.80;99.90
7030;DHT22;3556;53.500;10.176;2022-07-23T05:35:04;14.80;99.90
7030;DHT22;3556;53.500;10.176;2022-07-23T05:37:30;14.90;99.90
7030;DHT22;3556;53.500;10.176;2022-07-23T05:39:55;14.90;99.90
7030;DHT22;3556;53.500;10.176;2022-07-23T05:42:24;15.00;99.90
7030;DHT22;3556;53.500;10.176;2022-07-23T05:44:50;15.00;99.90
7030;DHT22;3556;53.500;10.176;2022-07-23T05:47:16;15.00;99.90
7030;DHT22;3556;53.500;10.176;2022-07-23T05:49:43;15.10;99.90
7030;DHT22;3556;53.500;10.176;2022-07-23T05:52:08;15.10;99.90
7030;DHT22;3556;53.500;10.176;2022-07-23T05:54:35;15.10;99.90
7030;DHT22;3556;53.500;10.176;2022-07-23T05:57:01;15.20;99.90
7030;DHT22;3556;53.500;10.176;2022-07-23T05:59:27;15.20;99.90
7030;DHT22;3556;53.500;10.176;2022-07-23T06:01:52;15.30;99.90
7030;DHT22;3556;53.500;10.176;2022-07-23T06:04:18;15.30;99.90
7030;DHT22;3556;53.500;10.176;2022-07-23T06:06:44;15.30;99.90
7030;DHT22;3556;53.500;10.176;2022-07-23T06:09:09;15.40;99.90
7030;DHT22;3556;53.500;10.176;2022-07-23T06:11:39;15.40;99.90
7030;DHT22;3556;53.500;10.176;2022-07-23T06:14:04;15.40;99.90
7030;DHT22;3556;53.500;10.176;2022-07-23T06:16:30;15.50;99.90
7030;DHT22;3556;53.500;10.176;2022-07-23T06:18:56;15.60;99.90
7030;DHT22;3556;53.500;10.176;2022-07-23T06:21:21;15.60;99.90
7030;DHT22;3556;53.500;10.176;2022-07-23T06:23:47;15.80;99.90
7030;DHT22;3556;53.500;10.176;2022-07-23T06:26:12;15.80;99.90
7030;DHT22;3556;53.500;10.176;2022-07-23T06:28:38;15.80;99.90
7030;DHT22;3556;53.500;10.176;2022-07-23T06:31:04;15.90;99.90
7030;DHT22;3556;53.500;10.176;2022-07-23T06:33:29;16.00;99.90
7030;DHT22;3556;53.500;10.176;2022-07-23T06:35:55;16.00;99.90
7030;DHT22;3556;53.500;10.176;2022-07-23T06:38:21;16.10;99.90
7030;DHT22;3556;53.500;10.176;2022-07-23T06:40:46;16.20;99.90
7030;DHT22;3556;53.500;10.176;2022-07-23T06:43:12;16.20;99.90
7030;DHT22;3556;53.500;10.176;2022-07-23T06:45:37;16.30;99.90
7030;DHT22;3556;53.500;10.176;2022-07-23T06:48:03;16.40;99.90
7030;DHT22;3556;53.500;10.176;2022-07-23T06:50:29;16.50;99.90
7030;DHT22;3556;53.500;10.176;2022-07-23T06:52:55;16.60;99.90
7030;DHT22;3556;53.500;10.176;2022-07-23T06:55:21;16.70;99.90
7030;DHT22;3556;53.500;10.176;2022-07-23T06:57:47;16.80;99.90
7030;DHT22;3556;53.500;10.176;2022-07-23T07:00:13;16.80;99.90
7030;DHT22;3556;53.500;10.176;2022-07-23T07:02:38;16.90;99.90
7030;DHT22;3556;53.500;10.176;2022-07-23T07:05:04;16.90;99.90
7030;DHT22;3556;53.500;10.176;2022-07-23T07:07:30;17.00;99.90
7030;DHT22;3556;53.500;10.176;2022-07-23T07:09:56;17.00;99.90
7030;DHT22;3556;53.500;10.176;2022-07-23T07:12:22;17.00;99.90
7030;DHT22;3556;53.500;10.176;2022-07-23T07:14:47;16.90;99.90
7030;DHT22;3556;53.500;10.176;2022-07-23T07:17:13;16.90;99.90
7030;DHT22;3556;53.500;10.176;2022-07-23T07:19:39;16.90;99.90
7030;DHT22;3556;53.500;10.176;2022-07-23T07:22:04;16.90;99.90
7030;DHT22;3556;53.500;10.176;2022-07-23T07:24:30;16.90;99.90
7030;DHT22;3556;53.500;10.176;2022-07-23T07:26:56;16.90;99.90
7030;DHT22;3556;53.500;10.176;2022-07-23T07:29:21;17.00;99.90
7030;DHT22;3556;53.500;10.176;2022-07-23T07:31:47;17.10;99.90
7030;DHT22;3556;53.500;10.176;2022-07-23T07:34:12;17.10;99.90
7030;DHT22;3556;53.500;10.176;2022-07-23T07:36:38;17.20;99.90
7030;DHT22;3556;53.500;10.176;2022-07-23T07:39:04;17.30;99.90
7030;DHT22;3556;53.500;10.176;2022-07-23T07:41:31;17.40;99.90
7030;DHT22;3556;53.500;10.176;2022-07-23T07:43:56;17.50;99.90
7030;DHT22;3556;53.500;10.176;2022-07-23T07:46:22;17.50;99.90
7030;DHT22;3556;53.500;10.176;2022-07-23T07:48:50;17.60;99.90
7030;DHT22;3556;53.500;10.176;2022-07-23T07:51:15;17.60;99.90
7030;DHT22;3556;53.500;10.176;2022-07-23T07:53:41;17.70;99.90
7030;DHT22;3556;53.500;10.176;2022-07-23T07:56:07;17.80;99.90
7030;DHT22;3556;53.500;10.176;2022-07-23T07:58:32;17.80;99.90
7030;DHT22;3556;53.500;10.176;2022-07-23T08:00:58;17.80;99.90
7030;DHT22;3556;53.500;10.176;2022-07-23T08:03:24;17.80;99.90
7030;DHT22;3556;53.500;10.176;2022-07-23T08:05:49;17.70;99.90
7030;DHT22;3556;53.500;10.176;2022-07-23T08:08:15;17.70;99.90
7030;DHT22;3556;53.500;10.176;2022-07-23T08:10:41;17.60;99.90
7030;DHT22;3556;53.500;10.176;2022-07-23T08:13:13;17.60;99.90
7030;DHT22;3556;53.500;10.176;2022-07-23T08:15:40;17.70;99.90
7030;DHT22;3556;53.500;10.176;2022-07-23T08:18:05;17.70;99.90
7030;DHT22;3556;53.500;10.176;2022-07-23T08:20:31;17.80;99.90
7030;DHT22;3556;53.500;10.176;2022-07-23T08:23:03;17.90;99.90
7030;DHT22;3556;53.500;10.176;2022-07-23T08:25:32;18.10;99.90
7030;DHT22;3556;53.500;10.176;2022-07-23T08:27:59;18.40;99.90
7030;DHT22;3556;53.500;10.176;2022-07-23T08:30:26;18.50;99.90
7030;DHT22;3556;53.500;10.176;2022-07-23T08:32:55;18.60;99.90
7030;DHT22;3556;53.500;10.176;2022-07-23T08:35:32;18.60;99.90
7030;DHT22;3556;53.500;10.176;2022-07-23T08:37:59;18.50;99.90
7030;DHT22;3556;53.500;10.176;2022-07-23T08:40:27;18.40;99.90
7030;DHT22;3556;53.500;10.176;2022-07-23T08:42:53;18.30;99.90
7030;DHT22;3556;53.500;10.176;2022-07-23T08:45:21;18.20;99.90
7030;DHT22;3556;53.500;10.176;2022-07-23T08:47:50;18.20;99.90
7030;DHT22;3556;53.500;10.176;2022-07-23T08:50:16;18.10;99.90
7030;DHT22;3556;53.500;10.176;2022-07-23T08:52:41;17.90;99.90
7030;DHT22;3556;53.500;10.176;2022-07-23T08:55:08;17.70;99.90
7030;DHT22;3556;53.500;10.176;2022-07-23T08:57:34;17.60;99.90
7030;DHT22;3556;53.500;10.176;2022-07-23T08:59:59;17.40;99.90
7030;DHT22;3556;53.500;10.176;2022-07-23T09:02:25;17.30;99.90
7030;DHT22;3556;53.500;10.176;2022-07-23T09:04:51;17.30;99.90
7030;DHT22;3556;53.500;10.176;2022-07-23T09:07:16;17.30;99.90
7030;DHT22;3556;53.500;10.176;2022-07-23T09:09:42;17.30;99.90
7030;DHT22;3556;53.500;10.176;2022-07-23T09:12:09;17.40;99.90
7030;DHT22;3556;53.500;10.176;2022-07-23T09:17:13;17.60;99.90
7030;DHT22;3556;53.500;10.176;2022-07-23T09:19:40;17.80;99.90
7030;DHT22;3556;53.500;10.176;2022-07-23T09:22:22;17.90;99.90
7030;DHT22;3556;53.500;10.176;2022-07-23T09:27:52;18.10;99.90
7030;DHT22;3556;53.500;10.176;2022-07-23T09:30:20;18.10;99.90
7030;DHT22;3556;53.500;10.176;2022-07-23T09:33:13;18.10;99.90
7030;DHT22;3556;53.500;10.176;2022-07-23T09:38:12;18.40;99.90
7030;DHT22;3556;53.500;10.176;2022-07-23T09:40:37;18.40;99.90
7030;DHT22;3556;53.500;10.176;2022-07-23T09:43:03;18.50;99.90
7030;DHT22;3556;53.500;10.176;2022-07-23T09:45:29;18.60;99.90
7030;DHT22;3556;53.500;10.176;2022-07-23T09:48:15;18.70;99.90
7030;DHT22;3556;53.500;10.176;2022-07-23T09:50:42;18.80;99.90
7030;DHT22;3556;53.500;10.176;2022-07-23T09:53:08;18.90;99.90
7030;DHT22;3556;53.500;10.176;2022-07-23T09:55:35;19.00;99.90
7030;DHT22;3556;53.500;10.176;2022-07-23T09:58:06;19.10;99.90
7030;DHT22;3556;53.500;10.176;2022-07-23T10:00:36;19.20;99.90
7030;DHT22;3556;53.500;10.176;2022-07-23T10:03:04;19.40;99.90
7030;DHT22;3556;53.500;10.176;2022-07-23T10:05:30;19.60;99.90
7030;DHT22;3556;53.500;10.176;2022-07-23T10:07:58;19.80;99.90
7030;DHT22;3556;53.500;10.176;2022-07-23T10:10:26;19.90;99.90
7030;DHT22;3556;53.500;10.176;2022-07-23T10:12:54;19.90;99.90
7030;DHT22;3556;53.500;10.176;2022-07-23T10:15:40;19.80;99.90
7030;DHT22;3556;53.500;10.176;2022-07-23T10:18:06;19.70;99.90
7030;DHT22;3556;53.500;10.176;2022-07-23T10:20:32;19.70;99.90
7030;DHT22;3556;53.500;10.176;2022-07-23T10:23:39;19.70;99.90
7030;DHT22;3556;53.500;10.176;2022-07-23T10:26:35;19.60;99.90
7030;DHT22;3556;53.500;10.176;2022-07-23T10:29:30;19.60;99.90
7030;DHT22;3556;53.500;10.176;2022-07-23T10:35:12;19.70;99.90
7030;DHT22;3556;53.500;10.176;2022-07-23T10:37:45;19.80;99.90
7030;DHT22;3556;53.500;10.176;2022-07-23T10:40:16;20.00;99.90
7030;DHT22;3556;53.500;10.176;2022-07-23T10:42:44;20.20;99.90
7030;DHT22;3556;53.500;10.176;2022-07-23T10:45:30;20.20;99.90
7030;DHT22;3556;53.500;10.176;2022-07-23T10:59:05;20.40;99.90
7030;DHT22;3556;53.500;10.176;2022-07-23T11:01:37;20.60;99.90
7030;DHT22;3556;53.500;10.176;2022-07-23T11:04:03;20.70;99.40
7030;DHT22;3556;53.500;10.176;2022-07-23T11:09:40;20.80;98.50
7030;DHT22;3556;53.500;10.176;2022-07-23T11:15:06;21.10;98.50
7030;DHT22;3556;53.500;10.176;2022-07-23T11:17:36;21.30;98.60
7030;DHT22;3556;53.500;10.176;2022-07-23T11:22:48;21.60;98.20
7030;DHT22;3556;53.500;10.176;2022-07-23T11:25:32;21.90;98.00
7030;DHT22;3556;53.500;10.176;2022-07-23T11:28:16;22.00;97.40
7030;DHT22;3556;53.500;10.176;2022-07-23T11:30:44;22.00;97.60
7030;DHT22;3556;53.500;10.176;2022-07-23T11:35:37;21.80;97.30
7030;DHT22;3556;53.500;10.176;2022-07-23T11:40:39;21.50;98.10
7030;DHT22;3556;53.500;10.176;2022-07-23T11:43:07;21.40;98.10
7030;DHT22;3556;53.500;10.176;2022-07-23T11:45:45;21.40;98.40
7030;DHT22;3556;53.500;10.176;2022-07-23T11:50:45;21.70;98.40
7030;DHT22;3556;53.500;10.176;2022-07-23T11:53:11;22.00;97.80
7030;DHT22;3556;53.500;10.176;2022-07-23T11:55:37;22.40;97.00
7030;DHT22;3556;53.500;10.176;2022-07-23T11:58:03;23.00;96.40
7030;DHT22;3556;53.500;10.176;2022-07-23T12:00:30;23.20;94.00
7030;DHT22;3556;53.500;10.176;2022-07-23T12:02:59;23.40;93.10
7030;DHT22;3556;53.500;10.176;2022-07-23T12:05:29;23.60;93.60
7030;DHT22;3556;53.500;10.176;2022-07-23T12:07:56;23.60;93.50
7030;DHT22;3556;53.500;10.176;2022-07-23T12:10:27;23.50;93.10
7030;DHT22;3556;53.500;10.176;2022-07-23T12:12:56;23.20;92.60
7030;DHT22;3556;53.500;10.176;2022-07-23T12:15:24;22.70;93.20
7030;DHT22;3556;53.500;10.176;2022-07-23T12:17:51;22.20;93.80
7030;DHT22;3556;53.500;10.176;2022-07-23T12:20:20;21.90;95.20
7030;DHT22;3556;53.500;10.176;2022-07-23T12:22:52;21.60;95.60
7030;DHT22;3556;53.500;10.176;2022-07-23T12:25:20;21.30;96.20
7030;DHT22;3556;53.500;10.176;2022-07-23T12:28:05;21.10;97.30
7030;DHT22;3556;53.500;10.176;2022-07-23T12:30:33;20.90;98.10
7030;DHT22;3556;53.500;10.176;2022-07-23T12:33:00;20.60;99.10
7030;DHT22;3556;53.500;10.176;2022-07-23T12:35:56;20.40;99.00
7030;DHT22;3556;53.500;10.176;2022-07-23T12:38:24;20.30;99.90
7030;DHT22;3556;53.500;10.176;2022-07-23T12:40:53;20.30;99.90
7030;DHT22;3556;53.500;10.176;2022-07-23T12:43:22;20.30;99.80
7030;DHT22;3556;53.500;10.176;2022-07-23T12:48:26;20.50;99.90
7030;DHT22;3556;53.500;10.176;2022-07-23T12:51:01;20.50;99.90
7030;DHT22;3556;53.500;10.176;2022-07-23T12:58:40;20.30;99.90
7030;DHT22;3556;53.500;10.176;2022-07-23T13:01:06;20.40;99.90
7030;DHT22;3556;53.500;10.176;2022-07-23T13:03:40;20.60;99.90
7030;DHT22;3556;53.500;10.176;2022-07-23T13:06:08;20.80;99.90
7030;DHT22;3556;53.500;10.176;2022-07-23T13:08:36;21.10;99.90
7030;DHT22;3556;53.500;10.176;2022-07-23T13:11:04;21.30;99.90
7030;DHT22;3556;53.500;10.176;2022-07-23T13:13:31;21.70;99.90
7030;DHT22;3556;53.500;10.176;2022-07-23T13:15:58;22.00;98.80
7030;DHT22;3556;53.500;10.176;2022-07-23T13:18:25;22.20;99.00
7030;DHT22;3556;53.500;10.176;2022-07-23T13:20:51;22.40;98.10
7030;DHT22;3556;53.500;10.176;2022-07-23T13:23:17;22.50;97.10
7030;DHT22;3556;53.500;10.176;2022-07-23T13:25:44;22.40;96.80
7030;DHT22;3556;53.500;10.176;2022-07-23T13:28:10;22.40;97.30
7030;DHT22;3556;53.500;10.176;2022-07-23T13:30:38;22.70;97.80
7030;DHT22;3556;53.500;10.176;2022-07-23T13:33:03;22.80;96.00
7030;DHT22;3556;53.500;10.176;2022-07-23T13:35:30;22.80;96.50
7030;DHT22;3556;53.500;10.176;2022-07-23T13:37:55;22.70;96.20
7030;DHT22;3556;53.500;10.176;2022-07-23T13:40:21;22.60;95.90
7030;DHT22;3556;53.500;10.176;2022-07-23T13:42:47;22.50;96.30
7030;DHT22;3556;53.500;10.176;2022-07-23T13:45:13;22.40;95.70
7030;DHT22;3556;53.500;10.176;2022-07-23T13:47:39;22.50;95.80
7030;DHT22;3556;53.500;10.176;2022-07-23T13:50:05;22.50;95.70
7030;DHT22;3556;53.500;10.176;2022-07-23T13:52:31;22.60;95.60
7030;DHT22;3556;53.500;10.176;2022-07-23T13:55:03;22.70;95.00
7030;DHT22;3556;53.500;10.176;2022-07-23T13:57:30;22.90;94.60
7030;DHT22;3556;53.500;10.176;2022-07-23T13:59:56;23.00;95.40
7030;DHT22;3556;53.500;10.176;2022-07-23T14:02:21;22.90;93.80
7030;DHT22;3556;53.500;10.176;2022-07-23T14:04:48;22.70;94.30
7030;DHT22;3556;53.500;10.176;2022-07-23T14:07:13;22.60;95.20
7030;DHT22;3556;53.500;10.176;2022-07-23T14:09:39;22.50;94.30
7030;DHT22;3556;53.500;10.176;2022-07-23T14:12:05;22.40;95.20
7030;DHT22;3556;53.500;10.176;2022-07-23T14:14:31;22.30;95.00
7030;DHT22;3556;53.500;10.176;2022-07-23T14:16:57;22.20;95.80
7030;DHT22;3556;53.500;10.176;2022-07-23T14:19:23;22.10;95.70
7030;DHT22;3556;53.500;10.176;2022-07-23T14:21:48;22.20;95.10
7030;DHT22;3556;53.500;10.176;2022-07-23T14:24:15;22.40;96.20
7030;DHT22;3556;53.500;10.176;2022-07-23T14:26:41;22.40;94.10
7030;DHT22;3556;53.500;10.176;2022-07-23T14:29:07;22.40;94.50
7030;DHT22;3556;53.500;10.176;2022-07-23T14:31:32;22.40;94.30
7030;DHT22;3556;53.500;10.176;2022-07-23T14:33:58;22.40;94.50
7030;DHT22;3556;53.500;10.176;2022-07-23T14:36:24;22.20;94.80
7030;DHT22;3556;53.500;10.176;2022-07-23T14:38:50;22.00;95.20
7030;DHT22;3556;53.500;10.176;2022-07-23T14:41:16;21.80;95.60
7030;DHT22;3556;53.500;10.176;2022-07-23T14:43:42;21.70;96.70
7030;DHT22;3556;53.500;10.176;2022-07-23T14:46:08;21.80;97.60
7030;DHT22;3556;53.500;10.176;2022-07-23T14:48:33;22.10;97.30
7030;DHT22;3556;53.500;10.176;2022-07-23T14:50:59;22.40;95.50
7030;DHT22;3556;53.500;10.176;2022-07-23T14:53:25;22.70;95.40
7030;DHT22;3556;53.500;10.176;2022-07-23T14:55:50;22.70;95.10
7030;DHT22;3556;53.500;10.176;2022-07-23T14:58:16;22.60;93.90
7030;DHT22;3556;53.500;10.176;2022-07-23T15:00:43;22.50;93.80
7030;DHT22;3556;53.500;10.176;2022-07-23T15:03:08;22.40;95.10
7030;DHT22;3556;53.500;10.176;2022-07-23T15:05:34;22.40;94.60
7030;DHT22;3556;53.500;10.176;2022-07-23T15:08:00;22.40;94.40
7030;DHT22;3556;53.500;10.176;2022-07-23T15:10:25;22.10;94.00
7030;DHT22;3556;53.500;10.176;2022-07-23T15:12:51;21.90;94.50
7030;DHT22;3556;53.500;10.176;2022-07-23T15:15:17;21.80;95.30
7030;DHT22;3556;53.500;10.176;2022-07-23T15:17:43;21.60;94.90
7030;DHT22;3556;53.500;10.176;2022-07-23T15:20:09;21.50;95.30
7030;DHT22;3556;53.500;10.176;2022-07-23T15:22:35;21.60;95.40
7030;DHT22;3556;53.500;10.176;2022-07-23T15:25:01;21.60;94.80
7030;DHT22;3556;53.500;10.176;2022-07-23T15:27:27;21.60;95.70
7030;DHT22;3556;53.500;10.176;2022-07-23T15:29:53;21.70;95.20
7030;DHT22;3556;53.500;10.176;2022-07-23T15:32:18;21.70;95.10
7030;DHT22;3556;53.500;10.176;2022-07-23T15:34:44;21.50;94.60
7030;DHT22;3556;53.500;10.176;2022-07-23T15:37:09;21.40;95.60
7030;DHT22;3556;53.500;10.176;2022-07-23T15:39:35;21.40;95.50
7030;DHT22;3556;53.500;10.176;2022-07-23T15:42:02;21.40;95.70
7030;DHT22;3556;53.500;10.176;2022-07-23T15:44:28;21.30;95.90
7030;DHT22;3556;53.500;10.176;2022-07-23T15:46:53;21.30;95.70
7030;DHT22;3556;53.500;10.176;2022-07-23T15:49:19;21.30;95.90
7030;DHT22;3556;53.500;10.176;2022-07-23T15:51:45;21.40;94.90
7030;DHT22;3556;53.500;10.176;2022-07-23T15:54:10;21.40;94.90
7030;DHT22;3556;53.500;10.176;2022-07-23T15:56:36;21.20;95.30
7030;DHT22;3556;53.500;10.176;2022-07-23T15:59:03;21.20;96.00
7030;DHT22;3556;53.500;10.176;2022-07-23T16:01:29;21.00;95.70
7030;DHT22;3556;53.500;10.176;2022-07-23T16:03:56;21.00;96.90
7030;DHT22;3556;53.500;10.176;2022-07-23T16:06:23;21.10;96.20
7030;DHT22;3556;53.500;10.176;2022-07-23T16:08:49;21.20;96.40
7030;DHT22;3556;53.500;10.176;2022-07-23T16:11:15;21.30;95.20
7030;DHT22;3556;53.500;10.176;2022-07-23T16:13:41;21.50;94.80
7030;DHT22;3556;53.500;10.176;2022-07-23T16:16:07;21.70;94.90
7030;DHT22;3556;53.500;10.176;2022-07-23T16:18:34;21.70;94.60
7030;DHT22;3556;53.500;10.176;2022-07-23T16:20:59;21.70;94.30
7030;DHT22;3556;53.500;10.176;2022-07-23T16:23:25;21.80;95.00
7030;DHT22;3556;53.500;10.176;2022-07-23T16:25:51;21.90;94.60
7030;DHT22;3556;53.500;10.176;2022-07-23T16:28:16;21.80;94.40
7030;DHT22;3556;53.500;10.176;2022-07-23T16:30:42;21.70;94.30